sensor_id;sensor_type;location;lat;lon;timestamp;temperature;humidity
20680;DHT22;10499;47.494;7.608;2022-12-20T00:00:01;1.80;99.90
20680;DHT22;10499;47.494;7.608;2022-12-20T00:02:27;1.90;99.90
20680;DHT22;10499;47.494;7.608;2022-12-20T00:04:53;1.90;99.90
20680;DHT22;10499;47.494;7.608;2022-12-20T00:07:18;2.00;99.90
20680;DHT22;10499;47.494;7.608;2022-12-20T00:09:44;2.00;99.90
20680;DHT22;10499;47.494;7.608;2022-12-20T00:12:09;2.10;99.90
20680;DHT22;10499;47.494;7.608;2022-12-20T00:14:35;2.20;99.90
20680;DHT22;10499;47.494;7.608;2022-12-20T00:17:00;2.60;99.90
20680;DHT22;10499;47.494;7.608;2022-12-20T00:19:26;2.40;99.90
20680;DHT22;10499;47.494;7.608;2022-12-20T00:21:52;2.30;99.90
20680;DHT22;10499;47.494;7.608;2022-12-20T00:24:18;2.40;99.90
20680;DHT22;10499;47.494;7.608;2022-12-20T00:26:43;2.40;99.90
20680;DHT22;10499;47.494;7.608;2022-12-20T00:29:09;2.40;99.90
20680;DHT22;10499;47.494;7.608;2022-12-20T00:31:35;2.20;99.90
20680;DHT22;10499;47.494;7.608;2022-12-20T00:34:00;2.20;99.90
20680;DHT22;10499;47.494;7.608;2022-12-20T00:36:29;2.30;99.90
20680;DHT22;10499;47.494;7.608;2022-12-20T00:38:56;2.20;99.90
20680;DHT22;10499;47.494;7.608;2022-12-20T00:41:24;2.10;99.90
20680;DHT22;10499;47.494;7.608;2022-12-20T00:43:52;2.20;99.90
20680;DHT22;10499;47.494;7.608;2022-12-20T00:46:19;2.10;99.90
20680;DHT22;10499;47.494;7.608;2022-12-20T00:48:46;2.20;99.90
20680;DHT22;10499;47.494;7.608;2022-12-20T00:51:14;2.20;99.90
20680;DHT22;10499;47.494;7.608;2022-12-20T00:53:41;2.20;99.90
20680;DHT22;10499;47.494;7.608;2022-12-20T00:56:08;2.30;99.90
20680;DHT22;10499;47.494;7.608;2022-12-20T00:58:36;2.40;99.90
20680;DHT22;10499;47.494;7.608;2022-12-20T01:01:04;2.50;99.90
20680;DHT22;10499;47.494;7.608;2022-12-20T01:03:30;2.60;99.90
20680;DHT22;10499;47.494;7.608;2022-12-20T01:05:59;2.60;99.90
20680;DHT22;10499;47.494;7.608;2022-12-20T01:08:26;2.60;99.90
20680;DHT22;10499;47.494;7.608;2022-12-20T01:11:14;2.70;99.90
20680;DHT22;10499;47.494;7.608;2022-12-20T01:13:42;2.70;99.90
20680;DHT22;10499;47.494;7.608;2022-12-20T01:18:36;2.70;99.90
20680;DHT22;10499;47.494;7.608;2022-12-20T01:21:04;2.60;99.90
20680;DHT22;10499;47.494;7.608;2022-12-20T01:23:30;2.40;99.90
20680;DHT22;10499;47.494;7.608;2022-12-20T01:26:01;2.40;99.90
20680;DHT22;10499;47.494;7.608;2022-12-20T01:28:27;2.50;99.90
20680;DHT22;10499;47.494;7.608;2022-12-20T01:30:53;2.50;99.90
20680;DHT22;10499;47.494;7.608;2022-12-20T01:33:19;2.60;99.90
20680;DHT22;10499;47.494;7.608;2022-12-20T01:36:06;2.70;99.90
20680;DHT22;10499;47.494;7.608;2022-12-20T01:38:34;2.70;99.90
20680;DHT22;10499;47.494;7.608;2022-12-20T01:41:00;2.70;99.90
20680;DHT22;10499;47.494;7.608;2022-12-20T01:43:56;2.50;99.90
20680;DHT22;10499;47.494;7.608;2022-12-20T01:46:27;2.50;99.90
20680;DHT22;10499;47.494;7.608;2022-12-20T01:49:08;2.50;99.90
20680;DHT22;10499;47.494;7.608;2022-12-20T01:51:39;2.50;99.90
20680;DHT22;10499;47.494;7.608;2022-12-20T01:54:10;2.50;99.90
20680;DHT22;10499;47.494;7.608;2022-12-20T01:56:38;2.50;99.90
20680;DHT22;10499;47.494;7.608;2022-12-20T01:59:05;2.50;99.90
20680;DHT22;10499;47.494;7.608;2022-12-20T02:01:32;2.40;99.90
20680;DHT22;10499;47.494;7.608;2022-12-20T02:03:58;2.40;99.90
20680;DHT22;10499;47.494;7.608;2022-12-20T02:06:25;2.40;99.90
20680;DHT22;10499;47.494;7.608;2022-12-20T02:08:55;2.40;99.90
20680;DHT22;10499;47.494;7.608;2022-12-20T02:11:45;2.40;99.90
20680;DHT22;10499;47.494;7.608;2022-12-20T02:31:28;2.70;99.90
20680;DHT22;10499;47.494;7.608;2022-12-20T02:33:58;2.70;99.90
20680;DHT22;10499;47.494;7.608;2022-12-20T02:36:24;2.80;99.90
20680;DHT22;10499;47.494;7.608;2022-12-20T02:38:50;2.80;99.90
20680;DHT22;10499;47.494;7.608;2022-12-20T02:43:54;2.80;99.90
20680;DHT22;10499;47.494;7.608;2022-12-20T02:46:38;2.80;99.90
20680;DHT22;10499;47.494;7.608;2022-12-20T02:49:09;2.70;99.90
20680;DHT22;10499;47.494;7.608;2022-12-20T02:51:37;2.70;99.90
20680;DHT22;10499;47.494;7.608;2022-12-20T02:54:04;2.70;99.90
20680;DHT22;10499;47.494;7.608;2022-12-20T02:56:55;2.70;99.90
20680;DHT22;10499;47.494;7.608;2022-12-20T02:59:38;2.80;99.90
20680;DHT22;10499;47.494;7.608;2022-12-20T03:02:06;2.90;99.90
20680;DHT22;10499;47.494;7.608;2022-12-20T03:04:35;2.80;99.90
20680;DHT22;10499;47.494;7.608;2022-12-20T03:07:05;2.90;99.90
20680;DHT22;10499;47.494;7.608;2022-12-20T03:09:34;2.90;99.90
20680;DHT22;10499;47.494;7.608;2022-12-20T03:12:00;2.90;99.90
20680;DHT22;10499;47.494;7.608;2022-12-20T03:14:26;2.80;99.90
20680;DHT22;10499;47.494;7.608;2022-12-20T03:16:52;2.80;99.90
20680;DHT22;10499;47.494;7.608;2022-12-20T03:19:18;2.80;99.90
20680;DHT22;10499;47.494;7.608;2022-12-20T03:21:44;2.70;99.90
20680;DHT22;10499;47.494;7.608;2022-12-20T03:24:10;2.70;99.90
20680;DHT22;10499;47.494;7.608;2022-12-20T03:26:36;2.60;99.90
20680;DHT22;10499;47.494;7.608;2022-12-20T03:29:03;2.60;99.90
20680;DHT22;10499;47.494;7.608;2022-12-20T03:31:28;2.60;99.90
20680;DHT22;10499;47.494;7.608;2022-12-20T03:33:54;2.60;99.90
20680;DHT22;10499;47.494;7.608;2022-12-20T03:36:20;2.60;99.90
20680;DHT22;10499;47.494;7.608;2022-12-20T03:38:49;2.70;99.90
20680;DHT22;10499;47.494;7.608;2022-12-20T03:41:15;2.70;99.90
20680;DHT22;10499;47.494;7.608;2022-12-20T03:43:40;2.70;99.90
20680;DHT22;10499;47.494;7.608;2022-12-20T03:46:06;2.70;99.90
20680;DHT22;10499;47.494;7.608;2022-12-20T03:48:32;2.60;99.90
20680;DHT22;10499;47.494;7.608;2022-12-20T03:50:58;2.60;99.90
20680;DHT22;10499;47.494;7.608;2022-12-20T03:53:23;2.60;99.90
20680;DHT22;10499;47.494;7.608;2022-12-20T03:55:49;2.60;99.90
20680;DHT22;10499;47.494;7.608;2022-12-20T03:58:14;2.70;99.90
20680;DHT22;10499;47.494;7.608;2022-12-20T04:00:40;2.80;99.90
20680;DHT22;10499;47.494;7.608;2022-12-20T04:03:06;2.80;99.90
20680;DHT22;10499;47.494;7.608;2022-12-20T04:05:31;2.80;99.90
20680;DHT22;10499;47.494;7.608;2022-12-20T04:07:57;2.80;99.90
20680;DHT22;10499;47.494;7.608;2022-12-20T04:10:23;2.80;99.90
20680;DHT22;10499;47.494;7.608;2022-12-20T04:12:48;2.70;99.90
20680;DHT22;10499;47.494;7.608;2022-12-20T04:15:14;2.70;99.90
20680;DHT22;10499;47.494;7.608;2022-12-20T04:17:40;2.70;99.90
20680;DHT22;10499;47.494;7.608;2022-12-20T04:20:06;2.60;99.90
20680;DHT22;10499;47.494;7.608;2022-12-20T04:22:49;2.60;99.90
20680;DHT22;10499;47.494;7.608;2022-12-20T04:25:16;2.60;99.90
20680;DHT22;10499;47.494;7.608;2022-12-20T04:27:42;2.50;99.90
20680;DHT22;10499;47.494;7.608;2022-12-20T04:30:09;2.60;99.90
20680;DHT22;10499;47.494;7.608;2022-12-20T04:32:35;2.50;99.90
20680;DHT22;10499;47.494;7.608;2022-12-20T04:35:00;2.50;99.90
20680;DHT22;10499;47.494;7.608;2022-12-20T04:37:26;2.60;99.90
20680;DHT22;10499;47.494;7.608;2022-12-20T04:39:52;2.50;99.90
20680;DHT22;10499;47.494;7.608;2022-12-20T04:42:17;2.40;99.90
20680;DHT22;10499;47.494;7.608;2022-12-20T04:44:43;2.30;99.90
20680;DHT22;10499;47.494;7.608;2022-12-20T04:47:09;2.30;99.90
20680;DHT22;10499;47.494;7.608;2022-12-20T04:49:35;2.30;99.90
20680;DHT22;10499;47.494;7.608;2022-12-20T04:52:00;2.20;99.90
20680;DHT22;10499;47.494;7.608;2022-12-20T04:54:46;2.30;99.90
20680;DHT22;10499;47.494;7.608;2022-12-20T04:57:12;2.30;99.90
20680;DHT22;10499;47.494;7.608;2022-12-20T04:59:38;2.40;99.90
20680;DHT22;10499;47.494;7.608;2022-12-20T05:02:04;2.40;99.90
20680;DHT22;10499;47.494;7.608;2022-12-20T05:04:29;2.40;99.90
20680;DHT22;10499;47.494;7.608;2022-12-20T05:06:55;2.30;99.90
20680;DHT22;10499;47.494;7.608;2022-12-20T05:09:21;2.10;99.90
20680;DHT22;10499;47.494;7.608;2022-12-20T05:11:47;2.10;99.90
20680;DHT22;10499;47.494;7.608;2022-12-20T05:14:12;2.10;99.90
20680;DHT22;10499;47.494;7.608;2022-12-20T05:16:38;2.00;99.90
20680;DHT22;10499;47.494;7.608;2022-12-20T05:19:03;2.00;99.90
20680;DHT22;10499;47.494;7.608;2022-12-20T05:21:30;2.10;99.90
20680;DHT22;10499;47.494;7.608;2022-12-20T05:24:14;2.10;99.90
20680;DHT22;10499;47.494;7.608;2022-12-20T05:26:59;2.10;99.90
20680;DHT22;10499;47.494;7.608;2022-12-20T05:29:24;2.10;99.90
20680;DHT22;10499;47.494;7.608;2022-12-20T05:31:50;2.00;99.90
20680;DHT22;10499;47.494;7.608;2022-12-20T05:34:16;1.90;99.90
20680;DHT22;10499;47.494;7.608;2022-12-20T05:36:42;1.80;99.90
20680;DHT22;10499;47.494;7.608;2022-12-20T05:39:07;1.80;99.90
20680;DHT22;10499;47.494;7.608;2022-12-20T05:41:33;1.80;99.90
20680;DHT22;10499;47.494;7.608;2022-12-20T05:43:59;1.90;99.90
20680;DHT22;10499;47.494;7.608;2022-12-20T05:46:25;1.80;99.90
20680;DHT22;10499;47.494;7.608;2022-12-20T05:48:51;1.80;99.90
20680;DHT22;10499;47.494;7.608;2022-12-20T05:51:17;1.80;99.90
20680;DHT22;10499;47.494;7.608;2022-12-20T05:53:42;1.80;99.90
20680;DHT22;10499;47.494;7.608;2022-12-20T05:56:08;1.80;99.90
20680;DHT22;10499;47.494;7.608;2022-12-20T06:01:09;1.80;99.90
20680;DHT22;10499;47.494;7.608;2022-12-20T06:03:36;2.00;99.90
20680;DHT22;10499;47.494;7.608;2022-12-20T06:06:03;2.00;99.90
20680;DHT22;10499;47.494;7.608;2022-12-20T06:08:28;2.10;99.90
20680;DHT22;10499;47.494;7.608;2022-12-20T06:10:54;2.10;99.90
20680;DHT22;10499;47.494;7.608;2022-12-20T06:13:20;2.10;99.90
20680;DHT22;10499;47.494;7.608;2022-12-20T06:15:46;2.20;99.90
20680;DHT22;10499;47.494;7.608;2022-12-20T06:18:11;2.20;99.90
20680;DHT22;10499;47.494;7.608;2022-12-20T06:20:38;2.20;99.90
20680;DHT22;10499;47.494;7.608;2022-12-20T06:23:04;2.20;99.90
20680;DHT22;10499;47.494;7.608;2022-12-20T06:25:30;2.20;99.90
20680;DHT22;10499;47.494;7.608;2022-12-20T06:27:56;2.10;99.90
20680;DHT22;10499;47.494;7.608;2022-12-20T06:30:22;2.20;99.90
20680;DHT22;10499;47.494;7.608;2022-12-20T06:32:47;2.20;99.90
20680;DHT22;10499;47.494;7.608;2022-12-20T06:35:13;2.20;99.90
20680;DHT22;10499;47.494;7.608;2022-12-20T06:37:40;2.30;99.90
20680;DHT22;10499;47.494;7.608;2022-12-20T06:40:11;2.40;99.90
20680;DHT22;10499;47.494;7.608;2022-12-20T06:42:36;2.50;99.90
20680;DHT22;10499;47.494;7.608;2022-12-20T06:45:03;2.60;99.90
20680;DHT22;10499;47.494;7.608;2022-12-20T06:47:29;2.70;99.90
20680;DHT22;10499;47.494;7.608;2022-12-20T06:49:55;2.70;99.90
20680;DHT22;10499;47.494;7.608;2022-12-20T06:52:20;2.70;99.90
20680;DHT22;10499;47.494;7.608;2022-12-20T06:54:46;2.70;99.90
20680;DHT22;10499;47.494;7.608;2022-12-20T06:57:11;2.60;99.90
20680;DHT22;10499;47.494;7.608;2022-12-20T06:59:38;2.70;99.90
20680;DHT22;10499;47.494;7.608;2022-12-20T07:02:03;2.70;99.90
20680;DHT22;10499;47.494;7.608;2022-12-20T07:04:29;2.90;99.90
20680;DHT22;10499;47.494;7.608;2022-12-20T07:06:55;3.00;99.90
20680;DHT22;10499;47.494;7.608;2022-12-20T07:09:21;2.90;99.90
20680;DHT22;10499;47.494;7.608;2022-12-20T07:11:47;2.90;99.90
20680;DHT22;10499;47.494;7.608;2022-12-20T07:14:34;2.80;99.90
20680;DHT22;10499;47.494;7.608;2022-12-20T07:17:09;2.80;99.90
20680;DHT22;10499;47.494;7.608;2022-12-20T07:20:13;2.80;99.90
20680;DHT22;10499;47.494;7.608;2022-12-20T07:23:07;2.80;99.90
20680;DHT22;10499;47.494;7.608;2022-12-20T07:26:01;3.00;99.90
20680;DHT22;10499;47.494;7.608;2022-12-20T07:29:11;3.10;99.90
20680;DHT22;10499;47.494;7.608;2022-12-20T07:31:42;3.20;99.90
20680;DHT22;10499;47.494;7.608;2022-12-20T07:34:12;3.20;99.90
20680;DHT22;10499;47.494;7.608;2022-12-20T07:36:58;3.30;99.90
20680;DHT22;10499;47.494;7.608;2022-12-20T07:39:46;3.30;99.90
20680;DHT22;10499;47.494;7.608;2022-12-20T07:42:22;3.30;99.90
20680;DHT22;10499;47.494;7.608;2022-12-20T07:44:54;3.20;99.90
20680;DHT22;10499;47.494;7.608;2022-12-20T07:47:19;3.30;99.90
20680;DHT22;10499;47.494;7.608;2022-12-20T07:49:48;3.40;99.90
20680;DHT22;10499;47.494;7.608;2022-12-20T07:52:50;3.50;99.90
20680;DHT22;10499;47.494;7.608;2022-12-20T07:55:35;3.60;99.90
20680;DHT22;10499;47.494;7.608;2022-12-20T08:01:46;3.70;99.90
20680;DHT22;10499;47.494;7.608;2022-12-20T08:04:38;3.80;99.90
20680;DHT22;10499;47.494;7.608;2022-12-20T08:07:04;3.90;99.90
20680;DHT22;10499;47.494;7.608;2022-12-20T08:09:35;3.90;99.90
20680;DHT22;10499;47.494;7.608;2022-12-20T08:12:04;3.80;99.90
20680;DHT22;10499;47.494;7.608;2022-12-20T08:14:31;3.90;99.90
20680;DHT22;10499;47.494;7.608;2022-12-20T08:16:57;4.00;99.90
20680;DHT22;10499;47.494;7.608;2022-12-20T08:19:22;4.10;99.90
20680;DHT22;10499;47.494;7.608;2022-12-20T08:21:48;4.20;99.90
20680;DHT22;10499;47.494;7.608;2022-12-20T08:24:14;4.20;99.90
20680;DHT22;10499;47.494;7.608;2022-12-20T08:26:40;4.30;99.90
20680;DHT22;10499;47.494;7.608;2022-12-20T08:29:07;4.30;99.90
20680;DHT22;10499;47.494;7.608;2022-12-20T08:31:37;4.40;99.90
20680;DHT22;10499;47.494;7.608;2022-12-20T08:34:03;4.40;99.90
20680;DHT22;10499;47.494;7.608;2022-12-20T08:36:29;4.30;99.90
20680;DHT22;10499;47.494;7.608;2022-12-20T08:38:54;4.40;99.90
20680;DHT22;10499;47.494;7.608;2022-12-20T08:41:20;4.40;99.90
20680;DHT22;10499;47.494;7.608;2022-12-20T08:44:18;4.40;99.90
20680;DHT22;10499;47.494;7.608;2022-12-20T08:46:47;4.40;99.90
20680;DHT22;10499;47.494;7.608;2022-12-20T08:49:13;4.50;99.90
20680;DHT22;10499;47.494;7.608;2022-12-20T08:51:38;4.60;99.90
20680;DHT22;10499;47.494;7.608;2022-12-20T08:54:04;4.50;99.90
20680;DHT22;10499;47.494;7.608;2022-12-20T08:56:30;4.50;99.90
20680;DHT22;10499;47.494;7.608;2022-12-20T08:58:55;4.60;99.90
20680;DHT22;10499;47.494;7.608;2022-12-20T09:01:22;4.90;99.90
20680;DHT22;10499;47.494;7.608;2022-12-20T09:03:48;4.90;99.90
20680;DHT22;10499;47.494;7.608;2022-12-20T09:06:16;5.00;99.90
20680;DHT22;10499;47.494;7.608;2022-12-20T09:08:42;4.90;99.90
20680;DHT22;10499;47.494;7.608;2022-12-20T09:11:16;5.00;99.90
20680;DHT22;10499;47.494;7.608;2022-12-20T09:13:44;5.00;99.90
20680;DHT22;10499;47.494;7.608;2022-12-20T09:16:13;4.90;99.90
20680;DHT22;10499;47.494;7.608;2022-12-20T09:18:38;5.00;99.90
20680;DHT22;10499;47.494;7.608;2022-12-20T09:21:06;5.00;99.90
20680;DHT22;10499;47.494;7.608;2022-12-20T09:23:33;5.10;99.90
20680;DHT22;10499;47.494;7.608;2022-12-20T09:26:10;5.10;99.90
20680;DHT22;10499;47.494;7.608;2022-12-20T09:28:36;5.20;99.90
20680;DHT22;10499;47.494;7.608;2022-12-20T09:31:05;5.40;99.90
20680;DHT22;10499;47.494;7.608;2022-12-20T09:33:33;5.50;99.90
20680;DHT22;10499;47.494;7.608;2022-12-20T09:35:59;5.50;99.90
20680;DHT22;10499;47.494;7.608;2022-12-20T09:38:26;5.60;99.90
20680;DHT22;10499;47.494;7.608;2022-12-20T09:40:55;5.70;99.90
20680;DHT22;10499;47.494;7.608;2022-12-20T09:43:21;5.80;99.90
20680;DHT22;10499;47.494;7.608;2022-12-20T09:46:00;5.80;99.90
20680;DHT22;10499;47.494;7.608;2022-12-20T09:48:38;5.80;99.90
20680;DHT22;10499;47.494;7.608;2022-12-20T09:53:54;5.70;99.90
20680;DHT22;10499;47.494;7.608;2022-12-20T09:56:29;5.80;99.90
20680;DHT22;10499;47.494;7.608;2022-12-20T09:59:02;5.90;99.90
20680;DHT22;10499;47.494;7.608;2022-12-20T10:01:31;6.00;99.90
20680;DHT22;10499;47.494;7.608;2022-12-20T10:04:01;6.10;99.90
20680;DHT22;10499;47.494;7.608;2022-12-20T10:06:50;6.40;99.90
20680;DHT22;10499;47.494;7.608;2022-12-20T10:12:17;6.70;99.90
20680;DHT22;10499;47.494;7.608;2022-12-20T10:23:57;7.20;99.90
20680;DHT22;10499;47.494;7.608;2022-12-20T10:26:25;7.30;99.90
20680;DHT22;10499;47.494;7.608;2022-12-20T10:28:51;7.40;99.90
20680;DHT22;10499;47.494;7.608;2022-12-20T10:31:17;7.30;99.90
20680;DHT22;10499;47.494;7.608;2022-12-20T10:33:44;7.20;99.90
20680;DHT22;10499;47.494;7.608;2022-12-20T10:38:51;6.80;99.90
20680;DHT22;10499;47.494;7.608;2022-12-20T10:41:23;6.90;99.90
20680;DHT22;10499;47.494;7.608;2022-12-20T10:44:02;7.10;99.90
20680;DHT22;10499;47.494;7.608;2022-12-20T10:46:42;7.30;99.90
20680;DHT22;10499;47.494;7.608;2022-12-20T10:49:35;7.30;99.90
20680;DHT22;10499;47.494;7.608;2022-12-20T10:54:35;7.30;99.90
20680;DHT22;10499;47.494;7.608;2022-12-20T10:57:20;7.40;99.90
20680;DHT22;10499;47.494;7.608;2022-12-20T10:59:55;7.70;99.90
20680;DHT22;10499;47.494;7.608;2022-12-20T11:02:30;8.10;99.90
20680;DHT22;10499;47.494;7.608;2022-12-20T11:05:22;8.30;99.90
20680;DHT22;10499;47.494;7.608;2022-12-20T11:08:06;8.50;99.90
20680;DHT22;10499;47.494;7.608;2022-12-20T11:10:32;9.10;99.90
20680;DHT22;10499;47.494;7.608;2022-12-20T11:13:00;9.40;99.90
20680;DHT22;10499;47.494;7.608;2022-12-20T11:15:30;9.30;99.90
20680;DHT22;10499;47.494;7.608;2022-12-20T11:23:28;15.40;81.40
20680;DHT22;10499;47.494;7.608;2022-12-20T11:45:03;25.60;44.50
20680;DHT22;10499;47.494;7.608;2022-12-20T11:53:12;26.50;40.60
20680;DHT22;10499;47.494;7.608;2022-12-20T11:55:42;26.60;41.00
20680;DHT22;10499;47.494;7.608;2022-12-20T12:00:39;26.80;39.50
20680;DHT22;10499;47.494;7.608;2022-12-20T12:03:28;26.40;40.60
20680;DHT22;10499;47.494;7.608;2022-12-20T12:06:09;27.00;39.40
20680;DHT22;10499;47.494;7.608;2022-12-20T12:08:42;25.50;39.80
20680;DHT22;10499;47.494;7.608;2022-12-20T12:11:23;25.10;42.00
20680;DHT22;10499;47.494;7.608;2022-12-20T12:13:50;24.60;42.50
20680;DHT22;10499;47.494;7.608;2022-12-20T12:16:26;24.00;43.40
20680;DHT22;10499;47.494;7.608;2022-12-20T12:18:53;24.30;42.90
20680;DHT22;10499;47.494;7.608;2022-12-20T12:21:27;24.20;43.50
20680;DHT22;10499;47.494;7.608;2022-12-20T12:27:22;18.80;53.90
20680;DHT22;10499;47.494;7.608;2022-12-20T12:29:48;17.20;59.00
20680;DHT22;10499;47.494;7.608;2022-12-20T12:38:14;22.70;48.10
20680;DHT22;10499;47.494;7.608;2022-12-20T12:41:09;21.60;49.20
20680;DHT22;10499;47.494;7.608;2022-12-20T12:43:47;22.70;47.30
20680;DHT22;10499;47.494;7.608;2022-12-20T12:46:17;23.10;46.30
20680;DHT22;10499;47.494;7.608;2022-12-20T12:51:10;23.50;46.20
20680;DHT22;10499;47.494;7.608;2022-12-20T12:53:48;23.10;46.00
20680;DHT22;10499;47.494;7.608;2022-12-20T13:13:00;22.30;48.10
20680;DHT22;10499;47.494;7.608;2022-12-20T13:17:56;22.10;48.80
20680;DHT22;10499;47.494;7.608;2022-12-20T13:20:30;22.90;47.60
20680;DHT22;10499;47.494;7.608;2022-12-20T13:25:38;22.20;48.80
20680;DHT22;10499;47.494;7.608;2022-12-20T13:38:50;21.30;49.60
20680;DHT22;10499;47.494;7.608;2022-12-20T13:41:37;20.30;52.50
20680;DHT22;10499;47.494;7.608;2022-12-20T13:44:39;19.50;54.50
20680;DHT22;10499;47.494;7.608;2022-12-20T13:49:47;19.00;55.50
20680;DHT22;10499;47.494;7.608;2022-12-20T13:55:36;18.50;57.40
20680;DHT22;10499;47.494;7.608;2022-12-20T13:58:17;18.50;58.00
20680;DHT22;10499;47.494;7.608;2022-12-20T14:00:53;18.60;57.40
20680;DHT22;10499;47.494;7.608;2022-12-20T14:03:31;18.10;59.30
20680;DHT22;10499;47.494;7.608;2022-12-20T14:06:26;18.70;57.50
20680;DHT22;10499;47.494;7.608;2022-12-20T14:08:52;18.80;57.10
20680;DHT22;10499;47.494;7.608;2022-12-20T14:11:25;18.50;57.20
20680;DHT22;10499;47.494;7.608;2022-12-20T14:13:56;18.10;58.70
20680;DHT22;10499;47.494;7.608;2022-12-20T14:16:24;17.90;59.60
20680;DHT22;10499;47.494;7.608;2022-12-20T14:19:13;16.80;62.10
20680;DHT22;10499;47.494;7.608;2022-12-20T14:21:42;16.60;63.70
20680;DHT22;10499;47.494;7.608;2022-12-20T14:24:14;16.50;63.20
20680;DHT22;10499;47.494;7.608;2022-12-20T14:26:43;15.50;65.40
20680;DHT22;10499;47.494;7.608;2022-12-20T14:29:16;14.90;68.40
20680;DHT22;10499;47.494;7.608;2022-12-20T14:31:46;14.90;69.30
20680;DHT22;10499;47.494;7.608;2022-12-20T14:34:20;15.30;68.90
20680;DHT22;10499;47.494;7.608;2022-12-20T14:36:47;15.70;67.80
20680;DHT22;10499;47.494;7.608;2022-12-20T14:39:29;15.80;67.30
20680;DHT22;10499;47.494;7.608;2022-12-20T14:42:01;16.00;67.10
20680;DHT22;10499;47.494;7.608;2022-12-20T14:44:29;15.60;67.70
20680;DHT22;10499;47.494;7.608;2022-12-20T14:46:57;15.10;69.00
20680;DHT22;10499;47.494;7.608;2022-12-20T14:51:50;14.80;71.90
20680;DHT22;10499;47.494;7.608;2022-12-20T14:54:27;14.40;72.40
20680;DHT22;10499;47.494;7.608;2022-12-20T14:56:53;13.80;74.30
20680;DHT22;10499;47.494;7.608;2022-12-20T14:59:27;13.40;76.10
20680;DHT22;10499;47.494;7.608;2022-12-20T15:01:56;12.80;78.50
20680;DHT22;10499;47.494;7.608;2022-12-20T15:04:34;12.60;79.70
20680;DHT22;10499;47.494;7.608;2022-12-20T15:07:29;12.20;81.60
20680;DHT22;10499;47.494;7.608;2022-12-20T15:09:56;11.90;83.50
20680;DHT22;10499;47.494;7.608;2022-12-20T15:12:23;11.80;84.60
20680;DHT22;10499;47.494;7.608;2022-12-20T15:14:49;11.70;85.10
20680;DHT22;10499;47.494;7.608;2022-12-20T15:17:16;11.50;86.40
20680;DHT22;10499;47.494;7.608;2022-12-20T15:19:43;11.50;87.80
20680;DHT22;10499;47.494;7.608;2022-12-20T15:22:14;11.40;89.10
20680;DHT22;10499;47.494;7.608;2022-12-20T15:24:40;11.20;91.00
20680;DHT22;10499;47.494;7.608;2022-12-20T15:27:12;10.90;93.30
20680;DHT22;10499;47.494;7.608;2022-12-20T15:29:38;10.70;95.70
20680;DHT22;10499;47.494;7.608;2022-12-20T15:32:14;10.50;99.50
20680;DHT22;10499;47.494;7.608;2022-12-20T15:34:42;10.50;99.90
20680;DHT22;10499;47.494;7.608;2022-12-20T15:37:10;10.40;99.90
20680;DHT22;10499;47.494;7.608;2022-12-20T15:39:40;10.50;99.90
20680;DHT22;10499;47.494;7.608;2022-12-20T15:42:05;10.50;99.90
20680;DHT22;10499;47.494;7.608;2022-12-20T15:44:32;10.40;99.90
20680;DHT22;10499;47.494;7.608;2022-12-20T15:47:00;10.20;99.90
20680;DHT22;10499;47.494;7.608;2022-12-20T15:49:30;10.20;99.90
20680;DHT22;10499;47.494;7.608;2022-12-20T15:51:56;9.90;99.90
20680;DHT22;10499;47.494;7.608;2022-12-20T15:54:30;9.70;99.90
20680;DHT22;10499;47.494;7.608;2022-12-20T15:56:59;9.70;99.90
20680;DHT22;10499;47.494;7.608;2022-12-20T15:59:27;9.70;99.90
20680;DHT22;10499;47.494;7.608;2022-12-20T16:01:53;9.60;99.90
20680;DHT22;10499;47.494;7.608;2022-12-20T16:04:21;9.40;99.90
20680;DHT22;10499;47.494;7.608;2022-12-20T16:06:48;9.50;99.90
20680;DHT22;10499;47.494;7.608;2022-12-20T16:09:15;9.50;99.90
20680;DHT22;10499;47.494;7.608;2022-12-20T16:11:42;9.60;99.90
20680;DHT22;10499;47.494;7.608;2022-12-20T16:14:16;9.60;99.90
20680;DHT22;10499;47.494;7.608;2022-12-20T16:16:43;9.60;99.90
20680;DHT22;10499;47.494;7.608;2022-12-20T16:19:10;9.60;99.90
20680;DHT22;10499;47.494;7.608;2022-12-20T16:21:47;9.60;99.90
20680;DHT22;10499;47.494;7.608;2022-12-20T16:24:15;9.50;99.90
20680;DHT22;10499;47.494;7.608;2022-12-20T16:26:41;9.40;99.90
20680;DHT22;10499;47.494;7.608;2022-12-20T16:29:07;9.20;99.90
20680;DHT22;10499;47.494;7.608;2022-12-20T16:31:56;9.00;99.90
20680;DHT22;10499;47.494;7.608;2022-12-20T16:37:55;8.80;99.90
20680;DHT22;10499;47.494;7.608;2022-12-20T16:40:32;8.60;99.90
20680;DHT22;10499;47.494;7.608;2022-12-20T16:42:59;8.50;99.90
20680;DHT22;10499;47.494;7.608;2022-12-20T16:45:27;8.40;99.90
20680;DHT22;10499;47.494;7.608;2022-12-20T16:47:54;8.20;99.90
20680;DHT22;10499;47.494;7.608;2022-12-20T16:50:21;7.90;99.90
20680;DHT22;10499;47.494;7.608;2022-12-20T16:52:47;8.10;99.90
20680;DHT22;10499;47.494;7.608;2022-12-20T16:55:22;8.20;99.90
20680;DHT22;10499;47.494;7.608;2022-12-20T16:57:48;8.20;99.90
20680;DHT22;10499;47.494;7.608;2022-12-20T17:00:22;8.20;99.90
20680;DHT22;10499;47.494;7.608;2022-12-20T17:02:49;8.30;99.90
20680;DHT22;10499;47.494;7.608;2022-12-20T17:05:32;8.30;99.90
20680;DHT22;10499;47.494;7.608;2022-12-20T17:07:58;8.40;99.90
20680;DHT22;10499;47.494;7.608;2022-12-20T17:10:25;8.40;99.90
20680;DHT22;10499;47.494;7.608;2022-12-20T17:12:51;8.20;99.90
20680;DHT22;10499;47.494;7.608;2022-12-20T17:15:23;8.00;99.90
20680;DHT22;10499;47.494;7.608;2022-12-20T17:17:49;8.10;99.90
20680;DHT22;10499;47.494;7.608;2022-12-20T17:20:17;8.20;99.90
20680;DHT22;10499;47.494;7.608;2022-12-20T17:22:46;8.20;99.90
20680;DHT22;10499;47.494;7.608;2022-12-20T17:25:34;8.00;99.90
20680;DHT22;10499;47.494;7.608;2022-12-20T17:27:59;7.90;99.90
20680;DHT22;10499;47.494;7.608;2022-12-20T17:30:25;7.90;99.90
20680;DHT22;10499;47.494;7.608;2022-12-20T17:32:52;8.00;99.90
20680;DHT22;10499;47.494;7.608;2022-12-20T17:37:44;8.10;99.90
20680;DHT22;10499;47.494;7.608;2022-12-20T17:40:13;8.10;99.90
20680;DHT22;10499;47.494;7.608;2022-12-20T17:42:39;7.80;99.90
20680;DHT22;10499;47.494;7.608;2022-12-20T17:45:05;7.70;99.90
20680;DHT22;10499;47.494;7.608;2022-12-20T17:47:31;7.80;99.90
20680;DHT22;10499;47.494;7.608;2022-12-20T17:49:57;7.60;99.90
20680;DHT22;10499;47.494;7.608;2022-12-20T17:52:22;7.60;99.90
20680;DHT22;10499;47.494;7.608;2022-12-20T17:54:49;7.60;99.90
20680;DHT22;10499;47.494;7.608;2022-12-20T17:57:15;7.70;99.90
20680;DHT22;10499;47.494;7.608;2022-12-20T17:59:41;7.70;99.90
20680;DHT22;10499;47.494;7.608;2022-12-20T18:02:21;7.60;99.90
20680;DHT22;10499;47.494;7.608;2022-12-20T18:04:47;7.50;99.90
20680;DHT22;10499;47.494;7.608;2022-12-20T18:07:13;7.40;99.90
20680;DHT22;10499;47.494;7.608;2022-12-20T18:09:38;7.40;99.90
20680;DHT22;10499;47.494;7.608;2022-12-20T18:12:04;7.20;99.90
20680;DHT22;10499;47.494;7.608;2022-12-20T18:14:30;7.20;99.90
20680;DHT22;10499;47.494;7.608;2022-12-20T18:16:55;7.00;99.90
20680;DHT22;10499;47.494;7.608;2022-12-20T18:19:22;6.90;99.90